This is the latest recevied weather packets stored in our database for station/object N2OCK. If no packets are shown the sender has not sent any weather packets the latest 10 day(s).
| Time | Temp. | Humidity | Pressure | Rain* | Wind** | Luminosity | Snow |
|---|---|---|---|---|---|---|---|
| 1777409605 | 15° C | 49% | 1019 hPa | 0 mm | - | 85 W/m² | - |
| 1777409300 | 15.56° C | 48% | 1019.1 hPa | 0 mm | - | 95 W/m² | - |
| 1777408996 | 15.56° C | 48% | 1019.3 hPa | 0 mm | - | 103 W/m² | - |
| 1777408694 | 15.56° C | 47% | 1019.4 hPa | 0 mm | - | 112 W/m² | - |
| 1777408389 | 15.56° C | 45% | 1019.3 hPa | 0 mm | - | 116 W/m² | - |
| 1777408089 | 16.11° C | 44% | 1019.3 hPa | 0 mm | - | 146 W/m² | - |
| 1777407784 | 16.11° C | 46% | 1019.3 hPa | 0 mm | - | 171 W/m² | - |
| 1777407480 | 16.67° C | 45% | 1019.3 hPa | 0 mm | - | 198 W/m² | - |
| 1777407175 | 16.67° C | 46% | 1019.4 hPa | 0 mm | - | 210 W/m² | - |
| 1777406870 | 17.22° C | 44% | 1019.5 hPa | 0 mm | - | 219 W/m² | - |
| 1777406566 | 17.22° C | 44% | 1019.7 hPa | 0 mm | - | 239 W/m² | - |
| 1777406262 | 17.22° C | 44% | 1019.8 hPa | 0 mm | - | 262 W/m² | - |
| 1777405960 | 17.22° C | 44% | 1019.8 hPa | 0 mm | - | 308 W/m² | - |
| 1777405657 | 17.22° C | 43% | 1019.7 hPa | 0 mm | - | 347 W/m² | - |
| 1777405355 | 17.78° C | 42% | 1019.9 hPa | 0 mm | - | 287 W/m² | - |
| 1777405051 | 18.33° C | 41% | 1019.9 hPa | 0 mm | - | 335 W/m² | - |
| 1777404751 | 18.33° C | 44% | 1020 hPa | 0 mm | - | 459 W/m² | - |
| 1777404447 | 17.78° C | 44% | 1020.2 hPa | 0 mm | - | 435 W/m² | - |
| 1777404143 | 17.78° C | 44% | 1020.5 hPa | 0 mm | - | 424 W/m² | - |
| 1777403839 | 17.78° C | 44% | 1020.2 hPa | 0 mm | - | 444 W/m² | - |
| 1777403534 | 17.78° C | 43% | 1020.2 hPa | 0 mm | - | 420 W/m² | - |
| 1777403228 | 17.22° C | 45% | 1020.2 hPa | 0 mm | - | 415 W/m² | - |
| 1777402924 | 17.78° C | 44% | 1020.2 hPa | 0 mm | - | 373 W/m² | - |
| 1777402619 | 17.78° C | 45% | 1020.4 hPa | 0 mm | - | 361 W/m² | - |
| 1777402318 | 17.78° C | 43% | 1020.5 hPa | 0 mm | - | 378 W/m² | - |
* Rain latest hour (hover to see other rain measurements)
** Current wind speed in m/s (hover to see current wind gust speed)